Time;durP1;ratioP1;P1;durP2;ratioP2;P2;SDS_P1;SDS_P2;PMS_P1;PMS_P2;Temp;Humidity;BMP_temperature;BMP_pressure;BME280_temperature;BME280_humidity;BME280_pressure;Samples;Min_cycle;Max_cycle;Signal;HPM_P1;HPM_P2
2021/08/18 00:01:45;;;;;;;3.88;3.42;;;12.30;99.90;;;;;;4990296;28;20560;-77
2021/08/18 00:04:11;;;;;;;5.78;3.80;;;12.30;99.90;;;;;;4990430;28;20306;-78
2021/08/18 00:06:37;;;;;;;5.18;2.90;;;12.50;99.90;;;;;;4989608;28;20255;-78
2021/08/18 00:09:04;;;;;;;3.75;3.13;;;12.60;99.90;;;;;;4990038;28;20702;-78
2021/08/18 00:11:29;;;;;;;4.57;3.00;;;12.60;99.90;;;;;;4989719;28;20192;-77
2021/08/18 00:13:55;;;;;;;3.65;2.97;;;12.60;99.90;;;;;;4989444;28;20180;-78
2021/08/18 00:16:23;;;;;;;4.32;2.80;;;12.70;99.90;;;;;;4989604;28;20188;-78
2021/08/18 00:18:52;;;;;;;5.55;3.40;;;12.80;99.90;;;;;;4990090;28;20232;-78
2021/08/18 00:21:21;;;;;;;4.20;3.00;;;12.80;99.90;;;;;;4989737;28;20412;-76
2021/08/18 00:23:48;;;;;;;4.82;3.60;;;12.80;99.90;;;;;;4998073;28;20195;-77
2021/08/18 00:26:15;;;;;;;3.88;2.80;;;12.90;99.90;;;;;;4989961;28;20240;-77
2021/08/18 00:28:40;;;;;;;4.53;3.22;;;12.90;99.90;;;;;;4986956;28;20665;-78
2021/08/18 00:31:06;;;;;;;4.13;3.08;;;13.00;99.90;;;;;;4989580;28;20184;-78
2021/08/18 00:33:32;;;;;;;4.43;3.03;;;13.00;99.90;;;;;;4990881;28;20184;-78
2021/08/18 00:35:58;;;;;;;3.10;2.78;;;13.00;99.90;;;;;;4990693;28;20184;-78
2021/08/18 00:38:24;;;;;;;2.95;2.65;;;13.00;99.90;;;;;;4990317;28;20266;-78
2021/08/18 00:40:49;;;;;;;4.63;3.25;;;13.00;99.90;;;;;;4990416;28;20643;-78
2021/08/18 00:43:15;;;;;;;3.70;3.00;;;13.00;99.90;;;;;;4990350;28;20192;-78
2021/08/18 00:45:42;;;;;;;3.35;3.05;;;13.20;99.90;;;;;;4988489;28;20192;-78
2021/08/18 00:48:07;;;;;;;4.93;3.25;;;13.20;99.90;;;;;;4989566;28;20196;-78
2021/08/18 00:50:34;;;;;;;2.80;2.47;;;13.20;99.90;;;;;;4989900;28;20227;-78
2021/08/18 00:52:59;;;;;;;3.03;2.60;;;13.20;99.90;;;;;;4991023;28;20188;-78
2021/08/18 00:55:27;;;;;;;4.10;2.88;;;13.10;99.90;;;;;;4990510;28;20191;-78
2021/08/18 00:57:54;;;;;;;4.50;2.90;;;13.10;99.90;;;;;;4990010;28;20293;-78
2021/08/18 01:00:21;;;;;;;3.88;2.78;;;13.10;99.90;;;;;;4991090;28;20184;-77
2021/08/18 01:02:48;;;;;;;5.32;3.03;;;13.10;99.90;;;;;;4992484;28;20187;-78
2021/08/18 01:05:15;;;;;;;4.70;3.10;;;13.20;99.90;;;;;;4988473;28;20180;-77
2021/08/18 01:07:41;;;;;;;4.20;2.90;;;13.20;99.90;;;;;;4988535;28;20250;-77
2021/08/18 01:10:09;;;;;;;4.00;3.00;;;13.20;99.90;;;;;;4989964;28;20212;-79
2021/08/18 01:12:36;;;;;;;3.53;2.78;;;13.30;99.90;;;;;;4990430;28;20177;-78
2021/08/18 01:15:10;;;;;;;5.32;3.53;;;13.30;99.90;;;;;;4988504;28;20250;-78
2021/08/18 01:17:43;;;;;;;4.00;2.80;;;13.40;99.90;;;;;;4990279;28;20345;-78
2021/08/18 01:20:11;;;;;;;3.90;2.97;;;13.30;99.90;;;;;;4988867;28;20262;-78
2021/08/18 01:22:36;;;;;;;4.13;3.08;;;13.40;99.90;;;;;;4990138;28;20247;-78
2021/08/18 01:25:05;;;;;;;3.15;2.58;;;13.40;99.90;;;;;;4989572;28;20192;-77
2021/08/18 01:27:31;;;;;;;3.70;3.00;;;13.30;99.90;;;;;;4990255;28;20204;-78
2021/08/18 01:29:57;;;;;;;3.28;2.63;;;13.40;99.90;;;;;;4989961;28;20219;-78
2021/08/18 01:32:22;;;;;;;3.03;2.63;;;13.40;99.90;;;;;;4988837;28;20188;-78
2021/08/18 01:34:49;;;;;;;4.05;2.55;;;13.40;99.90;;;;;;4989079;28;20200;-78
2021/08/18 01:37:14;;;;;;;3.05;2.50;;;13.50;99.90;;;;;;4988434;28;20332;-77
2021/08/18 01:39:40;;;;;;;4.85;3.10;;;13.60;99.90;;;;;;4988320;28;20277;-77
2021/08/18 01:42:06;;;;;;;3.55;2.53;;;13.60;99.90;;;;;;4986712;28;20995;-77
2021/08/18 01:44:32;;;;;;;4.03;2.60;;;13.60;99.90;;;;;;4986968;28;20243;-77
2021/08/18 01:46:58;;;;;;;2.92;2.45;;;13.60;99.90;;;;;;4988215;28;20189;-78
2021/08/18 01:49:24;;;;;;;4.60;2.67;;;13.70;99.90;;;;;;4988091;28;20216;-77
2021/08/18 01:51:50;;;;;;;3.10;2.60;;;13.70;99.90;;;;;;4988534;28;20184;-79
2021/08/18 01:54:15;;;;;;;2.72;2.47;;;13.70;99.90;;;;;;4989745;28;21047;-78
2021/08/18 01:56:41;;;;;;;3.03;2.00;;;13.70;99.90;;;;;;4991116;28;20184;-77
2021/08/18 01:59:06;;;;;;;4.57;2.47;;;13.70;99.90;;;;;;4990587;28;20231;-79
2021/08/18 02:01:32;;;;;;;4.80;2.67;;;13.80;99.90;;;;;;4989584;28;20267;-78
2021/08/18 02:03:58;;;;;;;3.85;2.60;;;13.80;99.90;;;;;;4988392;28;20448;-78
2021/08/18 02:06:24;;;;;;;5.40;2.78;;;13.90;99.90;;;;;;4990842;28;20191;-79
2021/08/18 02:08:49;;;;;;;3.88;2.70;;;13.90;99.90;;;;;;4990775;28;20286;-79
2021/08/18 02:11:15;;;;;;;4.97;2.63;;;13.80;99.90;;;;;;4991466;28;20191;-79
2021/08/18 02:13:43;;;;;;;4.78;2.92;;;13.80;99.90;;;;;;4991582;28;20175;-79
2021/08/18 02:16:09;;;;;;;4.15;2.72;;;13.70;99.90;;;;;;4991009;28;20211;-78
2021/08/18 02:18:34;;;;;;;4.65;2.53;;;13.70;99.90;;;;;;4991195;28;20674;-79
2021/08/18 02:21:00;;;;;;;3.70;2.85;;;13.70;99.90;;;;;;4989361;28;20211;-78
2021/08/18 02:23:26;;;;;;;3.30;2.60;;;13.80;99.90;;;;;;4990341;28;20227;-79
2021/08/18 02:25:51;;;;;;;3.72;2.42;;;13.70;99.90;;;;;;4989298;28;20192;-78
2021/08/18 02:28:17;;;;;;;4.03;2.50;;;13.70;99.90;;;;;;4991252;28;20692;-78
2021/08/18 02:30:43;;;;;;;4.10;2.85;;;13.70;99.90;;;;;;4990844;28;20183;-79
2021/08/18 02:33:09;;;;;;;4.05;2.53;;;13.80;99.90;;;;;;4990027;28;20242;-79
2021/08/18 02:35:35;;;;;;;3.42;3.00;;;13.70;99.90;;;;;;4989418;28;20871;-78
2021/08/18 02:38:02;;;;;;;5.68;2.92;;;13.80;99.90;;;;;;4991022;28;20200;-78
2021/08/18 02:40:28;;;;;;;2.88;2.55;;;13.80;99.90;;;;;;4991046;28;20191;-78
2021/08/18 02:42:56;;;;;;;3.67;2.58;;;13.80;99.90;;;;;;4989506;28;20279;-78
2021/08/18 02:45:23;;;;;;;3.30;2.55;;;13.80;99.90;;;;;;4990221;28;20185;-79
2021/08/18 02:47:50;;;;;;;4.03;3.05;;;13.80;99.90;;;;;;4991509;28;20211;-79
2021/08/18 02:50:19;;;;;;;4.30;3.00;;;13.70;99.90;;;;;;5005263;28;20263;-78
2021/08/18 02:52:44;;;;;;;4.70;2.70;;;13.70;99.90;;;;;;4990597;28;20179;-79
2021/08/18 02:55:10;;;;;;;4.85;2.90;;;13.70;99.90;;;;;;4990656;28;20227;-78
2021/08/18 02:57:36;;;;;;;4.68;2.72;;;13.70;99.90;;;;;;4991156;28;20295;-79
2021/08/18 03:00:03;;;;;;;4.40;2.65;;;13.70;99.90;;;;;;4991529;28;20219;-78
2021/08/18 03:02:29;;;;;;;3.67;2.70;;;13.70;99.90;;;;;;4990876;28;20188;-79
2021/08/18 03:04:55;;;;;;;3.42;2.83;;;13.70;99.90;;;;;;4998834;28;20192;-78
2021/08/18 03:07:21;;;;;;;3.97;2.67;;;13.70;99.90;;;;;;4991138;28;20250;-79
2021/08/18 03:09:47;;;;;;;3.05;2.42;;;13.80;99.90;;;;;;4990925;28;20208;-79
2021/08/18 03:12:12;;;;;;;3.40;2.13;;;13.70;99.90;;;;;;4989864;28;20184;-79
2021/08/18 03:14:38;;;;;;;3.38;2.00;;;13.70;99.90;;;;;;4988574;28;20204;-79
2021/08/18 03:17:04;;;;;;;3.13;2.40;;;13.70;99.90;;;;;;4990659;28;20658;-79
2021/08/18 03:19:29;;;;;;;3.50;2.40;;;13.70;99.90;;;;;;4988807;28;20255;-78
2021/08/18 03:21:55;;;;;;;3.03;2.42;;;13.60;99.90;;;;;;4989363;28;20679;-79
2021/08/18 03:24:20;;;;;;;2.50;2.00;;;13.70;99.90;;;;;;4989002;28;20196;-79
2021/08/18 03:26:46;;;;;;;2.75;1.80;;;13.70;99.90;;;;;;4989485;28;20242;-78
2021/08/18 03:29:11;;;;;;;2.63;1.60;;;13.70;99.90;;;;;;4990068;28;20223;-79
2021/08/18 03:31:37;;;;;;;3.25;2.03;;;13.70;99.90;;;;;;4989763;28;20311;-78
2021/08/18 03:34:03;;;;;;;2.50;1.85;;;13.70;99.90;;;;;;4989018;28;20192;-78
2021/08/18 03:36:29;;;;;;;2.05;1.63;;;13.80;99.90;;;;;;4990290;28;20196;-79
2021/08/18 03:38:56;;;;;;;3.28;1.75;;;13.80;99.90;;;;;;4990486;28;20726;-79
2021/08/18 03:41:21;;;;;;;2.28;1.70;;;13.80;99.90;;;;;;4991026;28;20188;-78
2021/08/18 03:43:47;;;;;;;2.05;1.55;;;13.70;99.90;;;;;;4991017;28;20195;-79
2021/08/18 03:46:13;;;;;;;3.60;1.50;;;13.80;99.90;;;;;;4991083;28;20208;-78
2021/08/18 03:48:38;;;;;;;1.92;1.67;;;13.80;99.90;;;;;;4991185;28;20220;-78
2021/08/18 03:51:04;;;;;;;2.35;1.70;;;13.80;99.90;;;;;;4989948;28;20188;-79
2021/08/18 03:53:29;;;;;;;3.40;1.80;;;13.80;99.90;;;;;;4991122;28;20196;-78
2021/08/18 03:55:55;;;;;;;2.70;1.70;;;13.70;99.90;;;;;;4989829;28;20238;-79
2021/08/18 03:58:21;;;;;;;2.53;1.80;;;13.60;99.90;;;;;;4990907;28;20218;-79
2021/08/18 04:00:46;;;;;;;2.88;1.80;;;13.50;99.90;;;;;;4990977;28;20263;-78
2021/08/18 04:03:12;;;;;;;2.22;2.00;;;13.60;99.90;;;;;;4991033;28;20192;-79
2021/08/18 04:05:37;;;;;;;2.08;1.42;;;13.50;99.90;;;;;;4989127;28;20299;-79
2021/08/18 04:08:07;;;;;;;2.30;2.10;;;13.60;99.90;;;;;;4998467;28;20210;-79
2021/08/18 04:10:32;;;;;;;2.67;1.95;;;13.50;99.90;;;;;;4990796;28;20195;-79
2021/08/18 04:13:00;;;;;;;3.65;1.83;;;13.60;99.90;;;;;;4990229;28;20436;-79
2021/08/18 04:15:28;;;;;;;2.15;1.67;;;13.60;99.90;;;;;;4988865;28;20191;-76
2021/08/18 04:17:53;;;;;;;3.38;1.98;;;13.70;99.90;;;;;;4988534;28;20674;-79
2021/08/18 04:20:20;;;;;;;1.58;1.42;;;13.70;99.90;;;;;;4988253;28;20208;-77
2021/08/18 04:22:46;;;;;;;1.80;1.58;;;13.70;99.90;;;;;;4985795;28;20188;-78
2021/08/18 04:25:16;;;;;;;2.60;2.00;;;13.80;99.90;;;;;;4984225;28;20192;-79
2021/08/18 04:27:43;;;;;;;2.63;2.20;;;13.90;99.90;;;;;;4989112;28;20207;-79
2021/08/18 04:30:10;;;;;;;2.33;1.50;;;13.90;99.90;;;;;;4987654;28;20288;-79
2021/08/18 04:32:37;;;;;;;1.95;1.42;;;13.90;99.90;;;;;;4988502;28;20262;-78
2021/08/18 04:35:04;;;;;;;1.85;1.73;;;14.00;99.90;;;;;;4988004;28;20195;-78
2021/08/18 04:37:30;;;;;;;1.90;1.70;;;14.00;99.90;;;;;;4989356;28;20204;-79
2021/08/18 04:39:55;;;;;;;2.90;1.80;;;14.10;99.90;;;;;;4989111;28;20180;-79
2021/08/18 04:42:21;;;;;;;2.05;1.85;;;14.10;99.90;;;;;;4989591;28;20196;-79
2021/08/18 04:44:46;;;;;;;2.95;1.88;;;14.10;99.90;;;;;;4989129;28;20661;-78
2021/08/18 04:47:12;;;;;;;2.60;1.52;;;14.20;99.90;;;;;;4989302;28;20192;-79
2021/08/18 04:49:37;;;;;;;2.72;1.95;;;14.20;99.90;;;;;;4987762;28;20215;-79
2021/08/18 04:52:03;;;;;;;2.60;1.85;;;14.20;99.90;;;;;;4988922;28;20192;-78
2021/08/18 04:54:29;;;;;;;2.95;2.00;;;14.20;99.90;;;;;;4987245;28;20191;-79
2021/08/18 04:56:54;;;;;;;1.75;1.60;;;14.30;99.90;;;;;;4989234;28;20184;-78
2021/08/18 04:59:20;;;;;;;1.85;1.48;;;14.30;99.90;;;;;;4987032;28;20212;-79
2021/08/18 05:01:45;;;;;;;3.50;1.88;;;14.40;99.90;;;;;;4988190;28;20191;-79
2021/08/18 05:04:11;;;;;;;2.10;1.70;;;14.50;99.90;;;;;;4987684;28;20199;-79
2021/08/18 05:06:37;;;;;;;2.35;1.45;;;14.50;99.90;;;;;;4988627;28;20307;-78
2021/08/18 05:09:03;;;;;;;1.77;1.55;;;14.50;99.90;;;;;;4987915;28;20776;-79
2021/08/18 05:11:28;;;;;;;2.33;1.67;;;14.60;99.90;;;;;;4988825;28;20769;-79
2021/08/18 05:13:54;;;;;;;2.03;1.70;;;14.60;99.90;;;;;;4988304;28;20181;-79
2021/08/18 05:16:19;;;;;;;1.90;1.65;;;14.60;99.90;;;;;;4989224;28;20180;-78
2021/08/18 05:18:45;;;;;;;2.13;1.70;;;14.60;99.90;;;;;;4993113;28;20204;-79
2021/08/18 05:21:11;;;;;;;3.38;1.75;;;14.70;99.90;;;;;;4993087;28;20187;-78
2021/08/18 05:23:36;;;;;;;2.40;1.70;;;14.60;99.90;;;;;;4993117;28;20211;-79
2021/08/18 05:26:02;;;;;;;2.05;1.85;;;14.60;99.90;;;;;;4992744;28;20184;-78
2021/08/18 05:28:28;;;;;;;3.08;2.17;;;14.60;99.90;;;;;;4991404;28;20295;-79
2021/08/18 05:30:53;;;;;;;2.17;1.60;;;14.70;99.90;;;;;;4992582;28;20203;-79
2021/08/18 05:33:19;;;;;;;1.83;1.52;;;14.90;99.90;;;;;;4991848;28;20196;-79
2021/08/18 05:35:44;;;;;;;2.72;1.88;;;15.10;99.90;;;;;;4992795;28;20212;-79
2021/08/18 05:38:10;;;;;;;3.92;2.00;;;15.10;99.90;;;;;;4993016;28;20254;-78
2021/08/18 05:40:36;;;;;;;2.05;1.80;;;15.10;99.90;;;;;;4992018;28;20180;-79
2021/08/18 05:43:01;;;;;;;3.10;1.80;;;15.10;99.90;;;;;;4992377;28;21019;-79
2021/08/18 05:45:27;;;;;;;2.05;1.52;;;15.10;99.90;;;;;;4992350;28;20222;-77
2021/08/18 05:47:52;;;;;;;1.55;1.33;;;15.00;99.90;;;;;;4990889;28;20595;-78
2021/08/18 05:50:18;;;;;;;3.05;1.70;;;15.10;99.90;;;;;;4992182;28;20218;-79
2021/08/18 05:52:44;;;;;;;2.53;1.65;;;15.10;99.90;;;;;;4990138;28;20586;-79
2021/08/18 05:55:10;;;;;;;2.22;1.60;;;15.20;99.90;;;;;;4989961;28;20640;-79
2021/08/18 05:57:36;;;;;;;2.13;1.55;;;15.30;99.90;;;;;;4990438;28;20226;-79
2021/08/18 06:00:03;;;;;;;1.23;1.13;;;15.30;99.90;;;;;;4991814;28;20188;-79
2021/08/18 06:02:28;;;;;;;1.52;1.25;;;15.30;99.90;;;;;;4991565;28;20188;-78
2021/08/18 06:04:54;;;;;;;1.42;1.30;;;15.30;99.90;;;;;;4992067;28;20190;-79
2021/08/18 06:07:19;;;;;;;1.38;1.27;;;15.30;99.90;;;;;;4991936;28;20514;-78
2021/08/18 06:09:45;;;;;;;1.52;1.08;;;15.40;99.90;;;;;;4991621;28;20208;-79
2021/08/18 06:12:11;;;;;;;1.83;1.42;;;15.50;99.90;;;;;;4991883;28;20263;-79
2021/08/18 06:14:36;;;;;;;1.85;1.50;;;15.40;99.90;;;;;;4990639;28;20192;-78
2021/08/18 06:17:02;;;;;;;1.52;1.42;;;15.50;99.90;;;;;;4991001;28;20188;-78
2021/08/18 06:19:28;;;;;;;1.80;1.35;;;15.50;99.90;;;;;;4991258;28;20306;-79
2021/08/18 06:21:53;;;;;;;1.90;1.33;;;15.50;99.90;;;;;;4990939;28;20192;-78
2021/08/18 06:26:45;;;;;;;1.42;1.10;;;15.50;99.90;;;;;;4991446;28;20256;-79
2021/08/18 06:29:11;;;;;;;1.40;1.23;;;15.40;99.90;;;;;;4990533;28;20203;-77
2021/08/18 06:31:36;;;;;;;1.35;1.25;;;15.30;99.90;;;;;;4991073;28;20191;-79
2021/08/18 06:34:02;;;;;;;1.20;0.93;;;15.40;99.90;;;;;;4991234;28;20188;-77
2021/08/18 06:36:28;;;;;;;1.42;1.33;;;15.40;99.90;;;;;;4990375;28;20193;-77
2021/08/18 06:38:53;;;;;;;1.60;1.30;;;15.60;99.90;;;;;;4990863;28;20203;-77
2021/08/18 06:41:19;;;;;;;2.33;1.40;;;15.90;99.90;;;;;;4989725;28;20278;-78
2021/08/18 06:43:44;;;;;;;2.42;1.42;;;16.10;99.90;;;;;;4991118;28;20653;-78
2021/08/18 06:46:10;;;;;;;1.70;1.40;;;16.30;99.90;;;;;;4990948;28;20558;-79
2021/08/18 06:48:35;;;;;;;1.80;1.50;;;16.30;99.90;;;;;;4991684;28;20277;-77
2021/08/18 06:51:01;;;;;;;2.15;1.60;;;16.50;99.90;;;;;;4989137;28;20185;-78
2021/08/18 06:53:26;;;;;;;1.60;1.50;;;16.60;99.90;;;;;;4991178;28;20665;-77
2021/08/18 06:55:52;;;;;;;1.98;1.77;;;16.70;99.90;;;;;;4990173;28;20195;-78
2021/08/18 06:58:17;;;;;;;2.05;1.63;;;17.00;99.90;;;;;;4990126;28;20204;-78
2021/08/18 07:00:43;;;;;;;2.08;1.80;;;17.30;99.90;;;;;;4990193;28;20191;-77
2021/08/18 07:03:08;;;;;;;2.00;1.83;;;17.30;99.90;;;;;;4988672;28;20195;-78
2021/08/18 07:05:35;;;;;;;3.85;1.95;;;17.60;99.90;;;;;;4989304;28;20192;-77
2021/08/18 07:08:01;;;;;;;3.53;2.40;;;17.80;99.90;;;;;;4989149;28;20196;-79
2021/08/18 07:10:26;;;;;;;2.20;1.80;;;17.80;99.90;;;;;;4989237;28;20224;-78
2021/08/18 07:12:52;;;;;;;3.47;2.13;;;18.00;99.90;;;;;;4989064;28;20190;-78
2021/08/18 07:15:18;;;;;;;2.58;2.00;;;17.90;99.90;;;;;;4987757;28;20211;-77
2021/08/18 07:17:43;;;;;;;4.07;2.45;;;17.90;99.90;;;;;;4989268;28;20191;-77
2021/08/18 07:20:10;;;;;;;2.50;2.25;;;17.90;99.90;;;;;;4987993;28;20208;-78
2021/08/18 07:22:36;;;;;;;6.93;2.83;;;18.20;99.90;;;;;;4988086;28;20777;-77
2021/08/18 07:25:01;;;;;;;3.05;2.20;;;18.20;99.90;;;;;;4988405;28;20181;-76
2021/08/18 07:27:27;;;;;;;3.15;2.10;;;18.10;99.90;;;;;;4988333;28;20238;-78
2021/08/18 07:29:54;;;;;;;3.95;1.77;;;17.90;99.90;;;;;;4986343;28;20270;-77
2021/08/18 07:32:20;;;;;;;2.15;1.95;;;17.70;99.90;;;;;;4987258;28;20184;-76
2021/08/18 07:34:46;;;;;;;2.22;2.03;;;17.90;99.90;;;;;;4986013;28;20230;-76
2021/08/18 07:37:11;;;;;;;2.03;1.73;;;18.20;99.90;;;;;;4985386;28;20180;-77
2021/08/18 07:39:37;;;;;;;2.78;1.75;;;18.70;99.90;;;;;;4988722;28;20606;-77
2021/08/18 07:42:03;;;;;;;2.33;2.05;;;19.20;99.90;;;;;;4988319;28;20199;-77
2021/08/18 07:44:29;;;;;;;3.38;1.90;;;19.30;99.90;;;;;;4988429;28;20184;-77
2021/08/18 07:46:54;;;;;;;3.53;1.70;;;19.20;99.90;;;;;;4987699;28;21082;-78
2021/08/18 07:49:20;;;;;;;2.00;1.80;;;19.30;99.90;;;;;;4990106;28;20215;-78
2021/08/18 07:51:45;;;;;;;2.60;1.50;;;19.30;99.90;;;;;;4989631;28;20177;-77
2021/08/18 07:54:11;;;;;;;3.90;2.08;;;19.40;99.90;;;;;;4990554;28;20184;-78
2021/08/18 07:56:36;;;;;;;2.60;2.03;;;19.40;99.90;;;;;;4988677;28;20713;-77
2021/08/18 07:59:02;;;;;;;2.45;1.73;;;19.20;99.90;;;;;;4990364;28;20736;-77
2021/08/18 08:01:28;;;;;;;2.95;1.98;;;19.00;99.90;;;;;;4988472;28;20188;-77
2021/08/18 08:03:53;;;;;;;1.73;1.50;;;18.90;99.90;;;;;;4990697;28;20230;-78
2021/08/18 08:06:19;;;;;;;1.73;1.40;;;19.00;99.90;;;;;;4989407;28;20192;-78
2021/08/18 08:08:44;;;;;;;2.15;1.60;;;18.80;99.90;;;;;;4989914;28;20745;-78
2021/08/18 08:11:10;;;;;;;2.55;1.40;;;18.70;99.90;;;;;;4990683;28;20192;-78
2021/08/18 08:13:36;;;;;;;3.47;1.77;;;18.70;99.90;;;;;;4990607;28;20194;-75
2021/08/18 08:16:02;;;;;;;1.75;1.48;;;18.80;99.90;;;;;;4990569;28;20275;-78
2021/08/18 08:18:28;;;;;;;2.20;1.67;;;18.70;99.90;;;;;;4981081;28;20232;-77
2021/08/18 08:20:53;;;;;;;3.13;1.40;;;18.60;99.90;;;;;;4989244;28;20246;-78
2021/08/18 08:23:19;;;;;;;2.00;1.73;;;18.50;99.90;;;;;;4990016;28;20192;-78
2021/08/18 08:25:45;;;;;;;2.00;1.35;;;18.60;99.90;;;;;;4990656;28;20215;-78
2021/08/18 08:28:10;;;;;;;1.60;1.50;;;18.50;99.90;;;;;;4990459;28;20207;-77
2021/08/18 08:30:36;;;;;;;2.72;1.70;;;18.50;99.90;;;;;;4990763;28;20214;-77
2021/08/18 08:33:02;;;;;;;1.77;1.50;;;18.40;99.90;;;;;;4990942;28;20187;-78
2021/08/18 08:35:29;;;;;;;1.63;1.45;;;18.50;99.90;;;;;;4990742;28;20180;-77
2021/08/18 08:37:55;;;;;;;2.05;1.58;;;18.80;99.90;;;;;;4989620;28;20680;-77
2021/08/18 08:40:21;;;;;;;1.58;1.35;;;19.00;99.90;;;;;;4989085;28;20183;-78
2021/08/18 08:42:48;;;;;;;1.33;1.23;;;19.30;99.90;;;;;;4990263;28;20267;-78
2021/08/18 08:45:14;;;;;;;3.20;1.40;;;19.60;99.90;;;;;;4989696;28;20190;-78
2021/08/18 08:47:41;;;;;;;1.60;1.27;;;20.00;99.90;;;;;;4989069;28;20212;-77
2021/08/18 08:50:09;;;;;;;1.70;1.35;;;20.40;99.90;;;;;;4989332;28;20212;-77
2021/08/18 08:52:35;;;;;;;2.35;1.60;;;20.60;99.90;;;;;;4992778;28;20187;-76
2021/08/18 08:55:02;;;;;;;2.97;2.10;;;20.60;99.90;;;;;;4991472;28;20275;-78
2021/08/18 08:57:28;;;;;;;5.88;3.30;;;20.60;99.90;;;;;;4992446;28;20196;-78
2021/08/18 08:59:53;;;;;;;3.20;2.10;;;20.60;99.90;;;;;;4990647;28;20196;-79
2021/08/18 09:02:21;;;;;;;2.92;2.15;;;20.40;99.90;;;;;;4993817;28;20180;-78
2021/08/18 09:04:48;;;;;;;2.55;1.63;;;20.20;99.90;;;;;;4992570;28;20196;-79
2021/08/18 09:07:13;;;;;;;3.35;1.92;;;19.90;99.90;;;;;;5006981;28;20219;-78
2021/08/18 09:09:55;;;;;;;2.17;1.80;;;19.70;99.90;;;;;;4991081;28;20234;-77
2021/08/18 09:12:27;;;;;;;1.80;1.33;;;19.60;99.90;;;;;;4991578;28;20761;-78
2021/08/18 09:14:52;;;;;;;1.80;1.40;;;19.30;99.90;;;;;;4991332;28;20176;-78
2021/08/18 09:17:30;;;;;;;1.23;1.05;;;19.10;99.90;;;;;;4992171;28;20679;-78
2021/08/18 09:20:15;;;;;;;1.25;1.15;;;19.20;99.90;;;;;;4991189;28;20674;-78
2021/08/18 09:22:57;;;;;;;2.38;1.40;;;19.30;99.90;;;;;;4991622;28;20573;-81
2021/08/18 09:25:31;;;;;;;1.35;1.00;;;19.50;99.90;;;;;;4989401;28;20487;-80
2021/08/18 09:27:59;;;;;;;1.10;0.90;;;19.50;99.90;;;;;;4990924;28;20200;-78
2021/08/18 09:30:37;;;;;;;1.48;1.00;;;19.90;99.90;;;;;;4990519;28;20207;-79
2021/08/18 09:33:12;;;;;;;3.97;1.20;;;20.10;99.90;;;;;;4991871;28;20207;-81
2021/08/18 09:35:38;;;;;;;1.40;1.00;;;20.40;99.90;;;;;;4990196;28;20183;-79
2021/08/18 09:38:06;;;;;;;2.33;1.00;;;20.10;99.90;;;;;;4992346;28;20210;-79
2021/08/18 09:40:39;;;;;;;2.83;1.63;;;20.20;99.90;;;;;;4991984;28;20192;-76
2021/08/18 09:43:10;;;;;;;1.15;1.05;;;20.10;99.90;;;;;;4991599;28;20183;-78
2021/08/18 09:45:39;;;;;;;1.13;1.00;;;19.80;99.90;;;;;;4991713;28;20561;-79
2021/08/18 09:48:11;;;;;;;1.90;1.00;;;19.60;99.90;;;;;;4991909;28;20214;-78
2021/08/18 09:50:53;;;;;;;1.45;1.23;;;19.50;99.90;;;;;;4990798;28;20223;-77
2021/08/18 09:53:40;;;;;;;3.25;0.95;;;19.60;99.90;;;;;;4990237;28;20191;-80
2021/08/18 09:56:07;;;;;;;0.70;0.70;;;19.70;99.90;;;;;;4991930;28;20180;-81
2021/08/18 09:58:34;;;;;;;1.20;0.70;;;19.50;99.90;;;;;;4991889;28;20208;-78
2021/08/18 10:01:04;;;;;;;0.80;0.80;;;19.60;99.90;;;;;;4989410;28;20184;-79
2021/08/18 10:03:32;;;;;;;2.13;1.10;;;19.50;99.90;;;;;;4988864;28;20194;-77
2021/08/18 10:05:58;;;;;;;1.08;0.98;;;19.40;99.90;;;;;;4989062;28;20188;-79
2021/08/18 10:08:24;;;;;;;1.00;0.90;;;19.50;99.90;;;;;;4989714;28;20204;-77
2021/08/18 10:10:52;;;;;;;0.85;0.80;;;19.70;99.90;;;;;;4989610;28;20189;-78
2021/08/18 10:13:18;;;;;;;1.15;0.93;;;20.10;99.90;;;;;;4988910;28;20189;-76
2021/08/18 10:15:45;;;;;;;0.73;0.73;;;20.10;99.90;;;;;;4985033;28;20185;-76
2021/08/18 10:18:18;;;;;;;0.73;0.73;;;20.00;99.90;;;;;;4982568;28;20200;-77
2021/08/18 10:20:44;;;;;;;2.15;1.00;;;19.80;99.90;;;;;;4984318;28;20192;-77
2021/08/18 10:23:10;;;;;;;1.13;1.00;;;19.70;99.90;;;;;;4983588;28;20651;-78
2021/08/18 10:25:47;;;;;;;1.70;0.90;;;19.30;99.90;;;;;;4983699;28;20214;-76
2021/08/18 10:28:13;;;;;;;1.25;1.15;;;18.90;99.90;;;;;;4983870;28;20696;-78
2021/08/18 10:30:53;;;;;;;2.03;1.30;;;18.70;99.90;;;;;;4985806;28;20430;-77
2021/08/18 10:33:56;;;;;;;0.82;0.70;;;18.50;99.90;;;;;;4985174;28;20188;-78
2021/08/18 10:36:41;;;;;;;0.68;0.68;;;18.40;99.90;;;;;;4986101;28;20242;-77
2021/08/18 10:39:19;;;;;;;1.17;0.90;;;18.40;99.90;;;;;;4982364;28;20287;-77
2021/08/18 10:42:10;;;;;;;1.42;1.08;;;18.60;99.90;;;;;;4984668;28;20654;-78
2021/08/18 10:44:51;;;;;;;2.53;1.00;;;18.90;99.90;;;;;;4986437;28;20189;-77
2021/08/18 10:47:26;;;;;;;1.02;0.90;;;19.30;99.90;;;;;;4984897;28;20190;-76
2021/08/18 10:50:12;;;;;;;1.65;1.15;;;19.60;99.90;;;;;;4986184;28;20207;-76
2021/08/18 10:52:38;;;;;;;0.70;0.70;;;19.80;99.90;;;;;;4986229;28;20184;-77
2021/08/18 10:55:17;;;;;;;1.02;0.70;;;19.90;99.90;;;;;;4986040;28;20231;-76
2021/08/18 10:57:50;;;;;;;1.25;0.80;;;19.80;99.90;;;;;;4984737;28;20641;-76
2021/08/18 11:00:20;;;;;;;1.00;0.90;;;19.50;99.90;;;;;;4986534;28;20188;-77
2021/08/18 11:02:56;;;;;;;1.45;0.95;;;19.20;99.90;;;;;;4986185;28;20184;-78
2021/08/18 11:05:48;;;;;;;2.30;1.02;;;19.00;99.90;;;;;;4985816;28;20254;-77
2021/08/18 11:08:18;;;;;;;1.38;1.00;;;19.00;99.90;;;;;;4981998;28;20220;-77
2021/08/18 11:10:55;;;;;;;2.38;0.95;;;19.40;99.90;;;;;;4985938;28;20191;-77
2021/08/18 11:13:37;;;;;;;1.38;1.00;;;19.30;99.90;;;;;;4985527;28;20677;-77
2021/08/18 11:16:28;;;;;;;1.05;0.90;;;19.20;99.90;;;;;;4983674;28;21010;-76
2021/08/18 11:18:57;;;;;;;1.88;1.20;;;19.20;99.90;;;;;;4985852;28;20231;-77
2021/08/18 11:21:28;;;;;;;1.70;1.23;;;19.30;99.90;;;;;;4985539;28;20208;-77
2021/08/18 11:24:00;;;;;;;1.00;0.90;;;19.50;99.90;;;;;;4984282;28;20203;-77
2021/08/18 11:26:28;;;;;;;0.75;0.65;;;19.80;99.90;;;;;;4985404;28;20214;-76
2021/08/18 11:29:07;;;;;;;1.17;1.00;;;20.10;99.90;;;;;;4985792;28;20439;-76
2021/08/18 11:31:53;;;;;;;1.98;1.00;;;20.30;99.90;;;;;;4985523;28;20187;-78
2021/08/18 11:34:37;;;;;;;1.42;0.90;;;20.60;99.90;;;;;;5000316;28;20542;-77
2021/08/18 11:37:13;;;;;;;0.95;0.88;;;20.60;99.90;;;;;;4983369;28;20180;-75
2021/08/18 11:39:46;;;;;;;1.10;0.90;;;20.60;99.90;;;;;;4986133;28;20191;-77
2021/08/18 11:42:22;;;;;;;1.25;1.00;;;20.70;99.90;;;;;;4984934;28;20840;-77
2021/08/18 11:44:59;;;;;;;0.90;0.90;;;20.40;99.90;;;;;;4983332;28;20215;-78
2021/08/18 11:47:29;;;;;;;1.20;1.10;;;20.00;99.90;;;;;;4990241;28;20658;-76
2021/08/18 11:49:55;;;;;;;2.38;0.85;;;19.80;99.90;;;;;;4992028;28;20257;-77
2021/08/18 11:52:22;;;;;;;1.15;0.93;;;19.70;99.90;;;;;;4991709;28;20263;-76
2021/08/18 11:55:08;;;;;;;1.38;0.98;;;19.60;99.90;;;;;;4991959;28;20307;-79
2021/08/18 11:57:34;;;;;;;0.95;0.50;;;19.70;99.90;;;;;;4991174;28;20204;-77
2021/08/18 12:00:06;;;;;;;1.30;0.88;;;20.00;99.90;;;;;;4992361;28;20207;-76
2021/08/18 12:02:35;;;;;;;0.50;0.47;;;20.30;99.90;;;;;;4992848;28;20215;-77
2021/08/18 12:05:06;;;;;;;0.65;0.50;;;20.40;99.90;;;;;;4992964;28;20206;-76
2021/08/18 12:07:34;;;;;;;0.50;0.50;;;20.40;99.90;;;;;;4992986;28;20208;-76
2021/08/18 12:10:22;;;;;;;1.45;0.70;;;20.60;99.90;;;;;;4994569;28;20239;-78
2021/08/18 12:13:03;;;;;;;0.93;0.63;;;20.40;99.90;;;;;;4987134;28;20173;-77
2021/08/18 12:15:33;;;;;;;1.05;0.40;;;20.30;99.90;;;;;;4986813;28;20184;-78
2021/08/18 12:17:59;;;;;;;1.75;0.60;;;20.40;99.90;;;;;;4985856;28;20634;-79
2021/08/18 12:20:35;;;;;;;0.60;0.55;;;20.60;99.90;;;;;;4985619;28;20238;-79
2021/08/18 12:23:03;;;;;;;0.95;0.50;;;20.30;99.90;;;;;;4985178;28;20274;-78
2021/08/18 12:25:35;;;;;;;0.93;0.68;;;20.40;99.90;;;;;;4985831;28;20195;-79
2021/08/18 12:28:11;;;;;;;1.25;0.80;;;20.20;99.90;;;;;;4985404;28;20234;-79
2021/08/18 12:31:02;;;;;;;0.70;0.70;;;20.20;99.90;;;;;;4986392;28;20208;-78
2021/08/18 12:33:29;;;;;;;2.30;0.88;;;20.30;99.90;;;;;;4986006;28;20180;-77
2021/08/18 12:36:13;;;;;;;1.60;1.08;;;20.20;99.90;;;;;;4986298;28;20834;-78
2021/08/18 12:38:54;;;;;;;1.08;0.70;;;20.30;99.90;;;;;;4986362;28;20470;-79
2021/08/18 12:41:24;;;;;;;1.05;0.50;;;20.50;99.90;;;;;;4984505;28;20254;-77
2021/08/18 12:44:12;;;;;;;0.60;0.60;;;20.50;99.90;;;;;;4986213;28;20188;-78
2021/08/18 12:46:43;;;;;;;0.98;0.80;;;20.60;99.90;;;;;;4985383;28;20208;-78
2021/08/18 12:49:28;;;;;;;1.05;0.70;;;20.60;99.90;;;;;;4984952;28;20305;-77
2021/08/18 12:51:55;;;;;;;1.10;0.63;;;20.20;99.90;;;;;;4985870;28;20462;-78
2021/08/18 12:54:21;;;;;;;1.10;0.60;;;20.10;99.90;;;;;;4986183;28;20241;-79
2021/08/18 12:56:47;;;;;;;1.15;0.50;;;20.10;99.90;;;;;;4985425;28;20248;-77